Time;durP1;ratioP1;P1;durP2;ratioP2;P2;SDS_P1;SDS_P2;PMS_P1;PMS_P2;Temp;Humidity;BMP_temperature;BMP_pressure;BME280_temperature;BME280_humidity;BME280_pressure;Samples;Min_cycle;Max_cycle;Signal;HPM_P1;HPM_P2
2021/12/21 00:00:13;;;;;;;;;;;-2.70;99.90;;;;;;5109528;27;20007;-65
2021/12/21 00:02:43;;;;;;;;;;;-2.70;99.90;;;;;;5114449;27;19915;-65
2021/12/21 00:05:14;;;;;;;;;;;-2.80;99.90;;;;;;5111102;27;19915;-65
2021/12/21 00:07:39;;;;;;;;;;;-2.80;99.90;;;;;;5113027;27;19935;-65
2021/12/21 00:10:05;;;;;;;;;;;-2.90;99.90;;;;;;5110721;27;19993;-65
2021/12/21 00:12:33;;;;;;;;;;;-2.90;99.90;;;;;;5112458;27;20400;-65
2021/12/21 00:25:19;;;;;;;;;;;-2.90;99.90;;;;;;5111225;27;19915;-65
2021/12/21 00:27:47;;;;;;;;;;;-2.80;99.90;;;;;;5111769;27;19915;-65
2021/12/21 00:30:12;;;;;;;;;;;-2.90;99.90;;;;;;5094720;27;19924;-65
2021/12/21 00:32:38;;;;;;;;;;;-2.80;99.90;;;;;;5108742;27;19972;-65
2021/12/21 00:35:04;;;;;;;;;;;-2.90;99.90;;;;;;5112647;27;19919;-65
2021/12/21 00:37:29;;;;;;;;;;;-2.90;99.90;;;;;;5110665;27;19915;-65
2021/12/21 00:39:55;;;;;;;;;;;-3.00;99.90;;;;;;5130071;27;20395;-65
2021/12/21 00:42:21;;;;;;;;;;;-3.00;99.90;;;;;;5111120;27;19915;-65
2021/12/21 00:44:46;;;;;;;;;;;-3.00;99.90;;;;;;5109476;27;20247;-65
2021/12/21 00:47:14;;;;;;;;;;;-3.00;99.90;;;;;;5105898;27;19919;-65
2021/12/21 00:49:44;;;;;;;;;;;-3.10;99.90;;;;;;5111240;27;19923;-65
2021/12/21 00:52:10;;;;;;;;;;;-3.10;99.90;;;;;;5113127;27;20370;-65
2021/12/21 00:54:35;;;;;;;;;;;-3.10;99.90;;;;;;5092698;27;19932;-66
2021/12/21 00:57:04;;;;;;;;;;;-3.10;99.90;;;;;;5112343;28;19919;-65
2021/12/21 00:59:33;;;;;;;;;;;-3.10;99.90;;;;;;5105016;27;19922;-65
2021/12/21 01:01:59;;;;;;;;;;;-3.10;99.90;;;;;;5110727;28;20362;-65
2021/12/21 01:04:32;;;;;;;;;;;-3.10;99.90;;;;;;5110811;28;19924;-65
2021/12/21 01:07:07;;;;;;;;;;;-3.20;99.90;;;;;;5112911;28;19916;-65
2021/12/21 01:12:30;;;;;;;;;;;-3.30;99.90;;;;;;5110083;28;20015;-65
2021/12/21 01:15:19;;;;;;;;;;;-3.30;99.90;;;;;;5110615;28;19934;-65
2021/12/21 01:18:00;;;;;;;;;;;-3.30;99.90;;;;;;5108479;28;19919;-65
2021/12/21 01:25:57;;;;;;;;;;;-3.30;99.90;;;;;;5111605;28;20003;-65
2021/12/21 01:28:52;;;;;;;;;;;-3.20;99.90;;;;;;5113090;28;20722;-65
2021/12/21 01:49:50;;;;;;;;;;;-3.10;99.90;;;;;;5110657;27;20400;-65
2021/12/21 01:52:17;;;;;;;;;;;-3.00;99.90;;;;;;5116366;27;19915;-65
2021/12/21 01:54:43;;;;;;;;;;;-3.00;99.90;;;;;;5111892;27;19930;-65
2021/12/21 01:57:09;;;;;;;;;;;-3.00;99.90;;;;;;5115822;27;20010;-65
2021/12/21 01:59:35;;;;;;;;;;;-3.00;99.90;;;;;;5113403;27;19915;-65
2021/12/21 02:02:01;;;;;;;;;;;-3.00;99.90;;;;;;5115778;27;19923;-65
2021/12/21 02:04:26;;;;;;;;;;;-3.00;99.90;;;;;;5112548;27;19945;-65
2021/12/21 02:06:52;;;;;;;;;;;-3.00;99.90;;;;;;5115692;27;19968;-65
2021/12/21 02:09:19;;;;;;;;;;;-3.10;99.90;;;;;;5111543;27;19966;-65
2021/12/21 02:11:46;;;;;;;;;;;-3.10;99.90;;;;;;5113486;27;19915;-65
2021/12/21 02:14:12;;;;;;;;;;;-3.10;99.90;;;;;;5116079;27;19915;-65
2021/12/21 02:16:59;;;;;;;;;;;-3.10;99.90;;;;;;5110258;27;19963;-65
2021/12/21 02:19:31;;;;;;;;;;;-3.10;99.90;;;;;;5114558;27;19919;-65
2021/12/21 02:22:07;;;;;;;;;;;-3.10;99.90;;;;;;5126526;27;19942;-65
2021/12/21 02:24:42;;;;;;;;;;;-3.20;99.90;;;;;;5110958;27;19930;-65
2021/12/21 02:27:29;;;;;;;;;;;-3.20;99.90;;;;;;5112624;27;19983;-65
2021/12/21 02:29:55;;;;;;;;;;;-3.30;99.90;;;;;;5113368;27;20345;-65
2021/12/21 02:32:22;;;;;;;;;;;-3.40;99.90;;;;;;5110731;27;20482;-65
2021/12/21 02:34:47;;;;;;;;;;;-3.40;99.90;;;;;;5109538;27;19927;-65
2021/12/21 02:37:13;;;;;;;;;;;-3.50;99.90;;;;;;5112011;27;19969;-65
2021/12/21 02:39:38;;;;;;;;;;;-3.50;99.90;;;;;;5096883;27;20006;-65
2021/12/21 02:42:04;;;;;;;;;;;-3.50;99.90;;;;;;5112834;27;20373;-65
2021/12/21 02:44:30;;;;;;;;;;;-3.50;99.90;;;;;;5109906;27;20334;-65
2021/12/21 02:46:56;;;;;;;;;;;-3.50;99.90;;;;;;5114789;27;19998;-65
2021/12/21 02:49:21;;;;;;;;;;;-3.50;99.90;;;;;;5111410;27;19923;-65
2021/12/21 02:51:47;;;;;;;;;;;-3.50;99.90;;;;;;5106291;27;19916;-65
2021/12/21 02:54:13;;;;;;;;;;;-3.50;99.90;;;;;;5105769;27;19920;-65
2021/12/21 02:56:40;;;;;;;;;;;-3.50;99.90;;;;;;5108119;27;19927;-65
2021/12/21 02:59:06;;;;;;;;;;;-3.60;99.90;;;;;;5100489;27;20381;-65
2021/12/21 03:01:31;;;;;;;;;;;-3.60;99.90;;;;;;5112628;27;19915;-65
2021/12/21 03:03:57;;;;;;;;;;;-3.60;99.90;;;;;;5102931;27;19941;-65
2021/12/21 03:07:07;;;;;;;;;;;-3.50;99.90;;;;;;5106912;27;19919;-65
2021/12/21 03:11:57;;;;;;;;;;;-3.50;99.90;;;;;;5110840;27;19915;-65
2021/12/21 03:14:26;;;;;;;;;;;-3.60;99.90;;;;;;5113569;27;19920;-65
2021/12/21 03:16:53;;;;;;;;;;;-3.60;99.90;;;;;;5093534;27;19923;-65
2021/12/21 03:19:19;;;;;;;;;;;-3.60;99.90;;;;;;5113548;27;19919;-65
2021/12/21 03:21:44;;;;;;;;;;;-3.60;99.90;;;;;;5114179;27;19915;-65
2021/12/21 03:24:10;;;;;;;;;;;-3.60;99.90;;;;;;5108534;27;20341;-65
2021/12/21 03:26:36;;;;;;;;;;;-3.70;99.90;;;;;;5096316;27;19968;-65
2021/12/21 03:29:02;;;;;;;;;;;-3.70;99.90;;;;;;5106172;27;19919;-65
2021/12/21 03:31:28;;;;;;;;;;;-3.70;99.90;;;;;;5111447;27;19923;-65
2021/12/21 03:33:53;;;;;;;;;;;-3.80;99.90;;;;;;5105456;27;19984;-65
2021/12/21 03:36:19;;;;;;;;;;;-3.80;99.90;;;;;;5110915;27;19919;-64
2021/12/21 03:38:51;;;;;;;;;;;-3.80;99.90;;;;;;5109284;27;19919;-65
2021/12/21 03:41:18;;;;;;;;;;;-3.80;99.90;;;;;;5111247;27;19915;-64
2021/12/21 03:43:44;;;;;;;;;;;-3.80;99.90;;;;;;5113881;27;19915;-64
2021/12/21 03:46:14;;;;;;;;;;;-3.90;99.90;;;;;;5109408;27;19915;-64
2021/12/21 03:48:41;;;;;;;;;;;-3.90;99.90;;;;;;5112427;27;20366;-64
2021/12/21 03:51:07;;;;;;;;;;;-4.00;99.90;;;;;;5113740;27;19931;-65
2021/12/21 03:53:33;;;;;;;;;;;-4.00;99.90;;;;;;5110947;27;19920;-65
2021/12/21 03:58:43;;;;;;;;;;;-4.00;99.90;;;;;;5112292;27;20014;-64
2021/12/21 04:01:09;;;;;;;;;;;-4.00;99.90;;;;;;5110305;27;20448;-65
2021/12/21 04:03:34;;;;;;;;;;;-4.00;99.90;;;;;;5127882;27;19960;-64
2021/12/21 04:06:00;;;;;;;;;;;-4.00;99.90;;;;;;5111223;27;20433;-64
2021/12/21 04:08:25;;;;;;;;;;;-4.00;99.90;;;;;;5113129;27;19915;-65
2021/12/21 04:10:51;;;;;;;;;;;-4.00;99.90;;;;;;5110376;27;19967;-65
2021/12/21 04:13:16;;;;;;;;;;;-4.00;99.90;;;;;;5112412;27;19916;-64
2021/12/21 04:15:42;;;;;;;;;;;-3.90;99.90;;;;;;5112779;27;19919;-64
2021/12/21 04:18:09;;;;;;;;;;;-3.90;99.90;;;;;;5112178;27;19919;-64
2021/12/21 04:20:34;;;;;;;;;;;-3.90;99.90;;;;;;5108641;27;19922;-64
2021/12/21 04:23:00;;;;;;;;;;;-3.90;99.90;;;;;;5113182;27;20269;-64
2021/12/21 04:25:25;;;;;;;;;;;-3.90;99.90;;;;;;5112363;27;19924;-64
2021/12/21 04:27:51;;;;;;;;;;;-3.90;99.90;;;;;;5112161;27;19964;-65
2021/12/21 04:30:17;;;;;;;;;;;-3.90;99.90;;;;;;5112153;27;19922;-65
2021/12/21 04:32:43;;;;;;;;;;;-3.90;99.90;;;;;;5130275;27;20339;-64
2021/12/21 04:35:09;;;;;;;;;;;-4.00;99.90;;;;;;5111710;27;19926;-64
2021/12/21 04:37:41;;;;;;;;;;;-4.00;99.90;;;;;;5109177;27;19961;-65
2021/12/21 04:40:12;;;;;;;;;;;-4.00;99.90;;;;;;5108903;27;19927;-64
2021/12/21 04:42:37;;;;;;;;;;;-4.00;99.90;;;;;;5094696;27;19915;-64
2021/12/21 04:45:03;;;;;;;;;;;-4.00;99.90;;;;;;5113435;27;19923;-64
2021/12/21 04:47:29;;;;;;;;;;;-4.00;99.90;;;;;;5109555;27;20041;-65
2021/12/21 04:49:55;;;;;;;;;;;-4.00;99.90;;;;;;5112808;27;19923;-64
2021/12/21 04:52:20;;;;;;;;;;;-4.00;99.90;;;;;;5110347;27;19923;-65
2021/12/21 04:54:46;;;;;;;;;;;-4.00;99.90;;;;;;5112416;28;19927;-65
2021/12/21 04:57:11;;;;;;;;;;;-4.00;99.90;;;;;;5093900;27;20255;-64
2021/12/21 04:59:36;;;;;;;;;;;-4.00;99.90;;;;;;5110443;27;19919;-64
2021/12/21 05:02:02;;;;;;;;;;;-4.00;99.90;;;;;;5111829;27;20350;-64
2021/12/21 05:04:27;;;;;;;;;;;-4.00;99.90;;;;;;5111896;28;19915;-64
2021/12/21 05:06:53;;;;;;;;;;;-4.00;99.90;;;;;;5110346;28;19922;-64
2021/12/21 05:09:25;;;;;;;;;;;-4.00;99.90;;;;;;5100643;28;19919;-64
2021/12/21 05:11:53;;;;;;;;;;;-4.10;99.90;;;;;;5114182;27;20285;-64
2021/12/21 05:14:18;;;;;;;;;;;-4.00;99.90;;;;;;5099130;27;19919;-64
2021/12/21 05:16:44;;;;;;;;;;;-4.00;99.90;;;;;;5116423;27;20398;-64
2021/12/21 05:19:09;;;;;;;;;;;-4.00;99.90;;;;;;5114203;27;20273;-64
2021/12/21 05:21:34;;;;;;;;;;;-4.10;99.90;;;;;;5114759;27;20289;-64
2021/12/21 05:24:00;;;;;;;;;;;-4.10;99.90;;;;;;5115959;27;19916;-64
2021/12/21 05:26:26;;;;;;;;;;;-4.20;99.90;;;;;;5116004;27;20339;-64
2021/12/21 05:28:52;;;;;;;;;;;-4.10;99.90;;;;;;5118171;27;19920;-64
2021/12/21 05:31:17;;;;;;;;;;;-4.20;99.90;;;;;;5116005;27;19915;-64
2021/12/21 05:33:43;;;;;;;;;;;-4.20;99.90;;;;;;5113846;27;19915;-64
2021/12/21 05:36:08;;;;;;;;;;;-4.20;99.90;;;;;;5116246;27;19958;-64
2021/12/21 05:38:35;;;;;;;;;;;-4.20;99.90;;;;;;5114040;27;19915;-64
2021/12/21 05:41:03;;;;;;;;;;;-4.20;99.90;;;;;;5115724;27;20263;-65
2021/12/21 05:43:29;;;;;;;;;;;-4.20;99.90;;;;;;5115446;27;19922;-64
2021/12/21 05:45:54;;;;;;;;;;;-4.20;99.90;;;;;;5115743;27;19946;-64
2021/12/21 05:48:20;;;;;;;;;;;-4.20;99.90;;;;;;5133691;27;19915;-64
2021/12/21 05:50:46;;;;;;;;;;;-4.20;99.90;;;;;;5098267;27;20255;-64
2021/12/21 05:53:11;;;;;;;;;;;-4.20;99.90;;;;;;5098477;27;20013;-64
2021/12/21 05:55:37;;;;;;;;;;;-4.20;99.90;;;;;;5114571;27;19919;-64
2021/12/21 05:58:02;;;;;;;;;;;-4.20;99.90;;;;;;5113487;27;19915;-64
2021/12/21 06:00:30;;;;;;;;;;;-4.20;99.90;;;;;;5114624;27;20280;-64
2021/12/21 06:02:55;;;;;;;;;;;-4.20;99.90;;;;;;5115071;27;19976;-64
2021/12/21 06:05:21;;;;;;;;;;;-4.20;99.90;;;;;;5113771;27;19915;-64
2021/12/21 06:07:50;;;;;;;;;;;-4.20;99.90;;;;;;5115543;27;19964;-64
2021/12/21 06:10:22;;;;;;;;;;;-4.20;99.90;;;;;;5112838;27;19919;-64
2021/12/21 06:15:54;;;;;;;;;;;-4.10;99.90;;;;;;5114787;27;20018;-64
2021/12/21 06:26:32;;;;;;;;;;;-4.20;99.90;;;;;;5109490;27;19922;-64
2021/12/21 06:28:58;;;;;;;;;;;-4.20;99.90;;;;;;5114802;27;19919;-64
2021/12/21 06:31:23;;;;;;;;;;;-4.20;99.90;;;;;;5112517;27;19919;-64
2021/12/21 06:33:49;;;;;;;;;;;-4.20;99.90;;;;;;5095066;27;19968;-64
2021/12/21 06:36:15;;;;;;;;;;;-4.20;99.90;;;;;;5113998;27;19926;-65
2021/12/21 06:38:41;;;;;;;;;;;-4.20;99.90;;;;;;5109929;27;19923;-64
2021/12/21 06:41:06;;;;;;;;;;;-4.20;99.90;;;;;;5111955;27;19923;-64
2021/12/21 06:43:33;;;;;;;;;;;-4.20;99.90;;;;;;5107983;27;20297;-65
2021/12/21 06:51:22;;;;;;;;;;;-4.30;99.90;;;;;;5111945;27;19921;-65
2021/12/21 06:53:52;;;;;;;;;;;-4.30;99.90;;;;;;5112755;27;20007;-64
2021/12/21 06:56:18;;;;;;;;;;;-4.30;99.90;;;;;;5114363;27;19926;-64
2021/12/21 06:58:44;;;;;;;;;;;-4.40;99.90;;;;;;5111983;27;19925;-65
2021/12/21 07:01:10;;;;;;;;;;;-4.40;99.90;;;;;;5113872;27;19915;-64
2021/12/21 07:03:36;;;;;;;;;;;-4.40;99.90;;;;;;5112156;27;20614;-65
2021/12/21 07:06:03;;;;;;;;;;;-4.40;99.90;;;;;;5107368;27;19919;-64
2021/12/21 07:08:31;;;;;;;;;;;-4.40;99.90;;;;;;5115037;27;19963;-64
2021/12/21 07:11:45;;;;;;;;;;;-4.40;99.90;;;;;;5104686;27;20014;-64
2021/12/21 07:19:11;;;;;;;;;;;-4.30;99.90;;;;;;5111325;27;20281;-64
2021/12/21 07:21:37;;;;;;;;;;;-4.30;99.90;;;;;;5097885;27;19924;-64
2021/12/21 07:24:03;;;;;;;;;;;-4.30;99.90;;;;;;5113881;27;20342;-64
2021/12/21 07:26:28;;;;;;;;;;;-4.30;99.90;;;;;;5110733;27;19915;-64
2021/12/21 07:28:54;;;;;;;;;;;-4.30;99.90;;;;;;5112736;27;20026;-64
2021/12/21 07:31:19;;;;;;;;;;;-4.40;99.90;;;;;;5113586;27;19926;-64
2021/12/21 07:33:45;;;;;;;;;;;-4.30;99.90;;;;;;5113807;27;19919;-65
2021/12/21 07:36:10;;;;;;;;;;;-4.40;99.90;;;;;;5113063;27;20017;-64
2021/12/21 07:38:36;;;;;;;;;;;-4.40;99.90;;;;;;5113541;27;19921;-63
2021/12/21 07:41:01;;;;;;;;;;;-4.30;99.90;;;;;;5132320;27;19926;-63
2021/12/21 07:43:27;;;;;;;;;;;-4.30;99.90;;;;;;5114541;27;19972;-63
2021/12/21 07:45:53;;;;;;;;;;;-4.40;99.90;;;;;;5112101;27;19923;-63
2021/12/21 07:48:18;;;;;;;;;;;-4.30;99.90;;;;;;5113795;27;19972;-63
2021/12/21 07:50:46;;;;;;;;;;;-4.30;99.90;;;;;;5109618;27;19919;-63
2021/12/21 07:53:12;;;;;;;;;;;-4.30;99.90;;;;;;5109876;27;19954;-63
2021/12/21 07:55:38;;;;;;;;;;;-4.30;99.90;;;;;;5113323;27;19924;-63
2021/12/21 07:58:03;;;;;;;;;;;-4.30;99.90;;;;;;5111232;27;19915;-63
2021/12/21 08:00:29;;;;;;;;;;;-4.30;99.90;;;;;;5112321;27;20036;-63
2021/12/21 08:02:56;;;;;;;;;;;-4.30;99.90;;;;;;5113397;27;19915;-63
2021/12/21 08:05:22;;;;;;;;;;;-4.20;99.90;;;;;;5112060;27;19915;-63
2021/12/21 08:07:53;;;;;;;;;;;-4.20;99.90;;;;;;5111221;27;19938;-63
2021/12/21 08:10:41;;;;;;;;;;;-4.20;99.90;;;;;;5107341;27;19965;-64
2021/12/21 08:13:06;;;;;;;;;;;-4.20;99.90;;;;;;5109231;27;19967;-63
2021/12/21 08:15:32;;;;;;;;;;;-4.20;99.90;;;;;;5109484;27;19958;-63
2021/12/21 08:17:57;;;;;;;;;;;-4.20;99.90;;;;;;5104691;27;19915;-63
2021/12/21 08:20:22;;;;;;;;;;;-4.20;99.90;;;;;;5110199;27;19953;-63
2021/12/21 08:22:48;;;;;;;;;;;-4.20;99.90;;;;;;5111839;27;20055;-63
2021/12/21 08:25:14;;;;;;;;;;;-4.10;99.90;;;;;;5112403;27;19919;-63
2021/12/21 08:27:40;;;;;;;;;;;-4.10;99.90;;;;;;5128286;27;20054;-63
2021/12/21 08:30:06;;;;;;;;;;;-4.10;99.90;;;;;;5110958;27;19920;-63
2021/12/21 08:32:32;;;;;;;;;;;-4.10;99.90;;;;;;5112995;27;20002;-63
2021/12/21 08:34:57;;;;;;;;;;;-4.10;99.90;;;;;;5112933;27;20013;-63
2021/12/21 08:37:23;;;;;;;;;;;-4.00;99.90;;;;;;5110634;27;20378;-63
2021/12/21 08:39:48;;;;;;;;;;;-4.00;99.90;;;;;;5110030;28;20412;-63
2021/12/21 08:42:15;;;;;;;;;;;-4.00;99.90;;;;;;5107735;27;20358;-63
2021/12/21 08:44:44;;;;;;;;;;;-4.00;99.90;;;;;;5110147;27;19922;-63
2021/12/21 08:47:10;;;;;;;;;;;-3.90;99.90;;;;;;5093727;27;19923;-63
2021/12/21 08:49:36;;;;;;;;;;;-3.90;99.90;;;;;;5130095;27;19915;-63
2021/12/21 08:52:01;;;;;;;;;;;-3.90;99.90;;;;;;5128250;27;20427;-63
2021/12/21 08:54:27;;;;;;;;;;;-3.80;99.90;;;;;;5109252;27;19941;-63
2021/12/21 08:56:52;;;;;;;;;;;-3.80;99.90;;;;;;5107720;28;19976;-63
2021/12/21 08:59:18;;;;;;;;;;;-3.70;99.90;;;;;;5113247;28;19927;-63
2021/12/21 09:01:44;;;;;;;;;;;-3.70;99.90;;;;;;5093033;28;19923;-63
2021/12/21 09:04:10;;;;;;;;;;;-3.60;99.90;;;;;;5092314;28;19915;-64
2021/12/21 09:06:35;;;;;;;;;;;-3.60;99.90;;;;;;5113685;27;20021;-63
2021/12/21 09:09:01;;;;;;;;;;;-3.50;99.90;;;;;;5115377;27;19964;-63
2021/12/21 09:11:26;;;;;;;;;;;-3.50;99.90;;;;;;5130848;28;19984;-63
2021/12/21 09:13:52;;;;;;;;;;;-3.40;99.90;;;;;;5112509;27;19963;-63
2021/12/21 09:16:17;;;;;;;;;;;-3.40;99.90;;;;;;5096499;28;19919;-64
2021/12/21 09:18:44;;;;;;;;;;;-3.30;99.90;;;;;;5106138;28;19919;-63
2021/12/21 09:21:09;;;;;;;;;;;-3.30;99.90;;;;;;5093753;27;19931;-63
2021/12/21 09:23:35;;;;;;;;;;;-3.20;99.90;;;;;;5110496;28;19915;-63
2021/12/21 09:26:00;;;;;;;;;;;-3.10;99.90;;;;;;5112143;28;19915;-63
2021/12/21 09:28:26;;;;;;;;;;;-3.10;99.90;;;;;;5100251;28;19922;-64
2021/12/21 09:30:51;;;;;;;;;;;-3.00;99.90;;;;;;5104294;28;19919;-63
2021/12/21 09:33:17;;;;;;;;;;;-3.00;99.90;;;;;;5111551;28;19919;-63
2021/12/21 09:35:42;;;;;;;;;;;-2.90;99.90;;;;;;5107360;28;20021;-63
2021/12/21 09:38:08;;;;;;;;;;;-2.80;99.90;;;;;;5109935;28;20314;-63
2021/12/21 09:40:38;;;;;;;;;;;-2.80;99.90;;;;;;5112619;28;19920;-63
2021/12/21 09:43:04;;;;;;;;;;;-2.70;99.90;;;;;;5112809;28;19977;-64
2021/12/21 09:45:30;;;;;;;;;;;-2.60;99.90;;;;;;5112980;28;19980;-63
2021/12/21 09:47:55;;;;;;;;;;;-2.50;99.90;;;;;;5099532;28;19915;-64
2021/12/21 09:50:21;;;;;;;;;;;-2.50;99.90;;;;;;5108710;28;19922;-63
2021/12/21 09:52:47;;;;;;;;;;;-2.40;99.90;;;;;;5129361;28;19919;-63
2021/12/21 09:55:13;;;;;;;;;;;-2.30;99.90;;;;;;5096384;28;20381;-64
2021/12/21 09:57:39;;;;;;;;;;;-2.30;99.90;;;;;;5115431;27;19921;-63
2021/12/21 10:00:11;;;;;;;;;;;-2.20;99.90;;;;;;5116938;27;20002;-63
2021/12/21 10:02:36;;;;;;;;;;;-2.10;99.90;;;;;;5133614;27;19927;-63
2021/12/21 10:05:04;;;;;;;;;;;-2.00;99.90;;;;;;5112554;27;19972;-63
2021/12/21 10:07:30;;;;;;;;;;;-1.90;99.90;;;;;;5110184;27;19915;-63
2021/12/21 10:10:04;;;;;;;;;;;-1.80;99.90;;;;;;5108322;27;20009;-63
2021/12/21 10:12:31;;;;;;;;;;;-1.70;99.90;;;;;;5115431;27;20376;-63
2021/12/21 10:15:08;;;;;;;;;;;-1.70;99.90;;;;;;5108440;27;19923;-64
2021/12/21 10:17:35;;;;;;;;;;;-1.60;99.90;;;;;;5115825;27;19919;-63
2021/12/21 10:20:05;;;;;;;;;;;-1.50;99.90;;;;;;5114476;27;20285;-64
2021/12/21 10:22:31;;;;;;;;;;;-1.40;99.90;;;;;;5115276;27;20342;-64
2021/12/21 10:24:56;;;;;;;;;;;-1.40;99.90;;;;;;5114908;27;19926;-64
2021/12/21 10:27:24;;;;;;;;;;;-1.30;99.90;;;;;;5114078;27;19919;-64
2021/12/21 10:29:51;;;;;;;;;;;-1.20;99.90;;;;;;5113779;27;19923;-64
2021/12/21 10:32:25;;;;;;;;;;;-1.10;99.90;;;;;;5114644;27;20014;-64
2021/12/21 10:34:50;;;;;;;;;;;-1.10;99.90;;;;;;5132367;27;19916;-64
2021/12/21 10:37:20;;;;;;;;;;;-0.90;99.90;;;;;;5115071;27;19915;-65
2021/12/21 10:39:45;;;;;;;;;;;-0.80;99.90;;;;;;5109441;28;19970;-64
2021/12/21 10:42:11;;;;;;;;;;;-0.80;99.90;;;;;;5102960;27;19962;-64
2021/12/21 10:44:37;;;;;;;;;;;-0.70;99.90;;;;;;5115042;27;19920;-64
2021/12/21 10:47:03;;;;;;;;;;;-0.70;99.90;;;;;;5114500;27;19946;-64
2021/12/21 10:49:29;;;;;;;;;;;-0.60;99.90;;;;;;5114293;27;20274;-64
2021/12/21 10:51:56;;;;;;;;;;;-0.60;99.90;;;;;;5114529;27;19979;-64
2021/12/21 10:54:31;;;;;;;;;;;-0.50;99.90;;;;;;5115137;27;19923;-64
2021/12/21 10:57:01;;;;;;;;;;;-0.40;99.90;;;;;;5114059;27;19934;-64
2021/12/21 10:59:30;;;;;;;;;;;-0.40;99.90;;;;;;5128005;27;20013;-64
2021/12/21 11:02:04;;;;;;;;;;;-0.30;99.90;;;;;;5111422;27;20358;-64
2021/12/21 11:04:33;;;;;;;;;;;-0.30;99.90;;;;;;5115410;27;19916;-64
2021/12/21 11:07:08;;;;;;;;;;;-0.30;99.90;;;;;;5114994;27;19919;-64
2021/12/21 11:09:34;;;;;;;;;;;-0.20;99.90;;;;;;5110571;28;19923;-64
2021/12/21 11:12:00;;;;;;;;;;;-0.20;99.90;;;;;;5103525;27;19915;-64
2021/12/21 11:14:29;;;;;;;;;;;-0.10;99.90;;;;;;5115679;27;19926;-64
2021/12/21 11:16:55;;;;;;;;;;;-0.10;99.90;;;;;;5114804;27;19920;-63
2021/12/21 11:19:21;;;;;;;;;;;0.00;99.90;;;;;;5100771;28;19923;-63
2021/12/21 11:21:47;;;;;;;;;;;0.10;99.90;;;;;;5133837;27;19930;-64
2021/12/21 11:24:14;;;;;;;;;;;0.10;99.90;;;;;;5110068;27;19919;-64
2021/12/21 11:26:40;;;;;;;;;;;0.10;99.90;;;;;;5108226;27;19919;-64
2021/12/21 11:29:07;;;;;;;;;;;0.20;99.90;;;;;;5111559;27;19924;-64
2021/12/21 11:31:43;;;;;;;;;;;0.30;99.90;;;;;;5113663;27;20022;-63
2021/12/21 11:34:12;;;;;;;;;;;0.30;99.90;;;;;;5114319;27;20311;-63
2021/12/21 11:39:23;;;;;;;;;;;0.40;99.90;;;;;;5111808;27;19926;-64
2021/12/21 11:41:48;;;;;;;;;;;0.50;99.90;;;;;;5128902;27;19915;-64
2021/12/21 11:44:21;;;;;;;;;;;0.60;99.90;;;;;;5114040;27;20007;-63
2021/12/21 11:46:54;;;;;;;;;;;0.60;99.90;;;;;;5113730;27;19915;-64
2021/12/21 11:49:54;;;;;;;;;;;0.70;99.90;;;;;;5112761;27;19922;-64
2021/12/21 11:52:20;;;;;;;;;;;0.80;99.90;;;;;;5082205;27;19916;-63
2021/12/21 11:54:53;;;;;;;;;;;0.80;99.90;;;;;;5096944;27;19926;-63
2021/12/21 11:57:20;;;;;;;;;;;0.90;99.90;;;;;;5113970;27;19924;-63
2021/12/21 11:59:47;;;;;;;;;;;0.90;99.90;;;;;;5112889;27;19915;-64
2021/12/21 12:02:12;;;;;;;;;;;1.00;99.90;;;;;;5107940;27;20014;-64
2021/12/21 12:04:38;;;;;;;;;;;1.00;99.90;;;;;;5103759;27;20044;-63
2021/12/21 12:07:15;;;;;;;;;;;1.00;99.90;;;;;;5113492;27;20426;-63
2021/12/21 12:09:41;;;;;;;;;;;1.10;99.90;;;;;;5112941;27;19915;-64
2021/12/21 12:12:11;;;;;;;;;;;1.10;99.90;;;;;;5109640;27;19934;-64
2021/12/21 12:14:37;;;;;;;;;;;1.20;99.90;;;;;;5112854;27;19923;-64
2021/12/21 12:17:09;;;;;;;;;;;1.30;99.90;;;;;;5112987;27;19920;-64
2021/12/21 12:19:37;;;;;;;;;;;1.30;99.90;;;;;;5111666;27;20397;-64
2021/12/21 12:22:04;;;;;;;;;;;1.40;99.90;;;;;;5108739;27;19919;-64
2021/12/21 12:24:37;;;;;;;;;;;1.40;99.90;;;;;;5111452;27;19938;-64
2021/12/21 12:27:19;;;;;;;;;;;1.50;99.90;;;;;;5111610;27;19954;-64
2021/12/21 12:29:55;;;;;;;;;;;1.60;99.90;;;;;;5111526;27;19923;-64
2021/12/21 12:32:34;;;;;;;;;;;1.70;99.90;;;;;;5130199;27;20385;-64
2021/12/21 12:35:01;;;;;;;;;;;1.70;99.90;;;;;;5107170;27;19990;-64
2021/12/21 12:37:27;;;;;;;;;;;1.70;99.90;;;;;;5093386;27;19923;-64
2021/12/21 12:39:54;;;;;;;;;;;1.70;99.90;;;;;;5111325;27;20067;-64
2021/12/21 12:42:27;;;;;;;;;;;1.80;99.90;;;;;;5109881;27;19915;-64
2021/12/21 12:45:08;;;;;;;;;;;1.80;99.90;;;;;;5102059;27;19915;-64
2021/12/21 12:47:35;;;;;;;;;;;1.80;99.90;;;;;;5111325;27;20134;-64
2021/12/21 12:50:01;;;;;;;;;;;1.90;99.90;;;;;;5121324;27;20020;-64
2021/12/21 12:52:31;;;;;;;;;;;2.00;99.90;;;;;;5110364;27;19915;-64
2021/12/21 12:54:59;;;;;;;;;;;2.00;99.90;;;;;;5100672;27;20006;-64
2021/12/21 12:57:24;;;;;;;;;;;2.00;99.90;;;;;;5112863;27;19919;-64
2021/12/21 12:59:51;;;;;;;;;;;2.10;99.90;;;;;;5112992;27;19990;-64
2021/12/21 13:02:16;;;;;;;;;;;2.10;99.90;;;;;;5114357;28;19921;-64
2021/12/21 13:04:42;;;;;;;;;;;2.20;99.90;;;;;;5113279;28;19919;-64
2021/12/21 13:07:07;;;;;;;;;;;2.20;99.90;;;;;;5113964;28;19934;-64
2021/12/21 13:09:33;;;;;;;;;;;2.20;99.90;;;;;;5107573;28;19964;-64
2021/12/21 13:12:00;;;;;;;;;;;2.30;99.90;;;;;;5113924;28;19949;-64
2021/12/21 13:14:25;;;;;;;;;;;2.30;99.90;;;;;;5111676;28;19916;-64
2021/12/21 13:16:51;;;;;;;;;;;2.30;99.90;;;;;;5113284;28;19919;-64
2021/12/21 13:19:18;;;;;;;;;;;2.40;99.90;;;;;;5112253;28;20078;-64
2021/12/21 13:21:57;;;;;;;;;;;2.40;99.90;;;;;;5113696;28;19919;-64
2021/12/21 13:24:25;;;;;;;;;;;2.40;99.90;;;;;;5114465;28;19926;-64
2021/12/21 13:26:51;;;;;;;;;;;2.40;99.90;;;;;;5097979;28;20320;-64
2021/12/21 13:29:22;;;;;;;;;;;2.40;99.90;;;;;;5113198;28;19942;-64
2021/12/21 13:31:50;;;;;;;;;;;2.50;99.90;;;;;;5113627;27;19926;-64
2021/12/21 13:34:16;;;;;;;;;;;2.50;99.90;;;;;;5118448;27;20365;-64
2021/12/21 13:36:45;;;;;;;;;;;2.50;99.90;;;;;;5117580;27;20418;-64
2021/12/21 13:39:16;;;;;;;;;;;2.50;99.90;;;;;;5116777;27;20369;-64
2021/12/21 13:41:49;;;;;;;;;;;2.50;99.90;;;;;;5117250;27;20408;-64
2021/12/21 13:44:22;;;;;;;;;;;2.50;99.90;;;;;;5104841;27;19966;-64
2021/12/21 13:46:47;;;;;;;;;;;2.50;99.90;;;;;;5116907;27;19920;-64
2021/12/21 13:49:13;;;;;;;;;;;2.50;99.90;;;;;;5115220;27;19968;-64
2021/12/21 13:51:46;;;;;;;;;;;2.50;99.90;;;;;;5117681;27;19960;-63
2021/12/21 13:54:14;;;;;;;;;;;2.50;99.90;;;;;;5117568;27;19940;-64
2021/12/21 13:56:39;;;;;;;;;;;2.50;99.90;;;;;;5116641;27;20394;-64
2021/12/21 13:59:09;;;;;;;;;;;2.50;99.90;;;;;;5112684;27;20030;-64
2021/12/21 14:01:35;;;;;;;;;;;2.50;99.90;;;;;;5111805;27;20373;-64
2021/12/21 14:04:04;;;;;;;;;;;2.40;99.90;;;;;;5117563;27;19923;-63
2021/12/21 14:06:29;;;;;;;;;;;2.40;99.90;;;;;;5116999;27;19921;-63
2021/12/21 14:08:56;;;;;;;;;;;2.40;99.90;;;;;;5116502;27;20359;-63
2021/12/21 14:11:29;;;;;;;;;;;2.40;99.90;;;;;;5116953;27;20010;-64
2021/12/21 14:13:55;;;;;;;;;;;2.40;99.90;;;;;;5112229;27;19915;-64
2021/12/21 14:16:23;;;;;;;;;;;2.40;99.90;;;;;;5115776;27;20282;-64
2021/12/21 14:18:52;;;;;;;;;;;2.40;99.90;;;;;;5114040;27;19976;-63
2021/12/21 14:21:19;;;;;;;;;;;2.40;99.90;;;;;;5101540;27;19926;-64
2021/12/21 14:23:49;;;;;;;;;;;2.40;99.90;;;;;;5125361;27;20034;-63
2021/12/21 14:26:17;;;;;;;;;;;2.30;99.90;;;;;;5116784;27;19921;-63
2021/12/21 14:28:50;;;;;;;;;;;2.30;99.90;;;;;;5134877;27;19915;-63
2021/12/21 14:31:18;;;;;;;;;;;2.30;99.90;;;;;;5134619;27;19960;-63
2021/12/21 14:33:50;;;;;;;;;;;2.30;99.90;;;;;;5109955;27;19915;-63
2021/12/21 14:36:19;;;;;;;;;;;2.20;99.90;;;;;;5098890;27;19971;-63
2021/12/21 14:38:49;;;;;;;;;;;2.20;99.90;;;;;;5109502;27;19971;-63
2021/12/21 14:41:18;;;;;;;;;;;2.20;99.90;;;;;;5105725;27;19916;-63
2021/12/21 14:43:43;;;;;;;;;;;2.10;99.90;;;;;;5109136;28;19919;-63
2021/12/21 14:46:16;;;;;;;;;;;2.10;99.90;;;;;;5116416;27;19922;-63
2021/12/21 14:48:47;;;;;;;;;;;2.10;99.90;;;;;;5115656;27;19990;-63
2021/12/21 14:51:13;;;;;;;;;;;2.00;99.90;;;;;;5132095;27;19922;-63
2021/12/21 14:53:47;;;;;;;;;;;2.00;99.90;;;;;;5104150;28;19916;-63
2021/12/21 14:56:24;;;;;;;;;;;2.00;99.90;;;;;;5114587;27;20006;-63
2021/12/21 14:59:00;;;;;;;;;;;1.90;99.90;;;;;;5115589;27;20378;-63
2021/12/21 15:02:04;;;;;;;;;;;1.90;99.90;;;;;;5099326;27;19992;-63
2021/12/21 15:04:30;;;;;;;;;;;1.80;99.90;;;;;;5064709;28;20006;-63
2021/12/21 15:06:55;;;;;;;;;;;1.80;99.90;;;;;;5112221;27;20018;-63
2021/12/21 15:09:21;;;;;;;;;;;1.80;99.90;;;;;;5095189;28;20293;-63
2021/12/21 15:11:48;;;;;;;;;;;1.70;99.90;;;;;;5108073;27;19975;-63
2021/12/21 15:14:13;;;;;;;;;;;1.60;99.90;;;;;;5115974;27;20351;-63
2021/12/21 15:16:39;;;;;;;;;;;1.60;99.90;;;;;;5111566;27;19984;-63
2021/12/21 15:19:05;;;;;;;;;;;1.50;99.90;;;;;;5108196;27;19915;-63
2021/12/21 15:21:30;;;;;;;;;;;1.40;99.90;;;;;;5109577;27;19922;-63
2021/12/21 15:24:00;;;;;;;;;;;1.40;99.90;;;;;;5105959;27;20408;-63
2021/12/21 15:26:26;;;;;;;;;;;1.30;99.90;;;;;;5108036;27;19916;-63
2021/12/21 15:28:51;;;;;;;;;;;1.30;99.90;;;;;;5123548;27;20004;-63
2021/12/21 15:31:17;;;;;;;;;;;1.20;99.90;;;;;;5083897;27;19919;-62